sensor_id;sensor_type;location;lat;lon;timestamp;temperature;humidity
49222;DHT22;35047;37.588;-122.048;2023-04-24T00:01:00;23.90;58.60
49222;DHT22;35047;37.588;-122.048;2023-04-24T00:03:27;23.80;59.20
49222;DHT22;35047;37.588;-122.048;2023-04-24T00:05:54;23.70;59.80
49222;DHT22;35047;37.588;-122.048;2023-04-24T00:08:20;23.60;60.00
49222;DHT22;35047;37.588;-122.048;2023-04-24T00:10:48;23.50;59.50
49222;DHT22;35047;37.588;-122.048;2023-04-24T00:13:15;23.30;59.50
49222;DHT22;35047;37.588;-122.048;2023-04-24T00:15:41;23.20;60.60
49222;DHT22;35047;37.588;-122.048;2023-04-24T00:18:08;23.10;60.40
49222;DHT22;35047;37.588;-122.048;2023-04-24T00:20:34;23.00;61.60
49222;DHT22;35047;37.588;-122.048;2023-04-24T00:23:03;23.10;61.00
49222;DHT22;35047;37.588;-122.048;2023-04-24T00:25:30;23.00;60.80
49222;DHT22;35047;37.588;-122.048;2023-04-24T00:27:56;23.10;60.80
49222;DHT22;35047;37.588;-122.048;2023-04-24T00:30:23;23.00;60.60
49222;DHT22;35047;37.588;-122.048;2023-04-24T00:32:49;23.10;60.70
49222;DHT22;35047;37.588;-122.048;2023-04-24T00:35:16;23.10;60.30
49222;DHT22;35047;37.588;-122.048;2023-04-24T00:37:42;23.10;60.80
49222;DHT22;35047;37.588;-122.048;2023-04-24T00:40:10;23.10;60.50
49222;DHT22;35047;37.588;-122.048;2023-04-24T00:42:37;23.10;60.80
49222;DHT22;35047;37.588;-122.048;2023-04-24T00:45:04;23.20;61.00
49222;DHT22;35047;37.588;-122.048;2023-04-24T00:47:35;23.30;60.00
49222;DHT22;35047;37.588;-122.048;2023-04-24T00:50:03;23.30;59.70
49222;DHT22;35047;37.588;-122.048;2023-04-24T00:52:29;23.30;60.10
49222;DHT22;35047;37.588;-122.048;2023-04-24T00:54:58;23.30;59.70
49222;DHT22;35047;37.588;-122.048;2023-04-24T00:57:25;23.30;60.30
49222;DHT22;35047;37.588;-122.048;2023-04-24T00:59:52;23.20;59.60
49222;DHT22;35047;37.588;-122.048;2023-04-24T01:02:20;23.00;60.10
49222;DHT22;35047;37.588;-122.048;2023-04-24T01:04:50;22.70;60.80
49222;DHT22;35047;37.588;-122.048;2023-04-24T01:07:19;22.70;61.50
49222;DHT22;35047;37.588;-122.048;2023-04-24T01:09:47;22.70;61.40
49222;DHT22;35047;37.588;-122.048;2023-04-24T01:12:15;22.40;60.80
49222;DHT22;35047;37.588;-122.048;2023-04-24T01:14:41;22.40;61.40
49222;DHT22;35047;37.588;-122.048;2023-04-24T01:17:08;22.30;61.60
49222;DHT22;35047;37.588;-122.048;2023-04-24T01:19:36;22.10;61.90
49222;DHT22;35047;37.588;-122.048;2023-04-24T01:24:30;21.80;62.60
49222;DHT22;35047;37.588;-122.048;2023-04-24T01:26:57;21.70;63.00
49222;DHT22;35047;37.588;-122.048;2023-04-24T01:29:24;21.70;63.00
49222;DHT22;35047;37.588;-122.048;2023-04-24T01:31:50;21.60;63.50
49222;DHT22;35047;37.588;-122.048;2023-04-24T01:34:17;21.60;63.90
49222;DHT22;35047;37.588;-122.048;2023-04-24T01:36:45;21.60;63.90
49222;DHT22;35047;37.588;-122.048;2023-04-24T01:39:13;21.50;63.70
49222;DHT22;35047;37.588;-122.048;2023-04-24T01:41:39;21.40;63.80
49222;DHT22;35047;37.588;-122.048;2023-04-24T01:44:06;21.30;63.90
49222;DHT22;35047;37.588;-122.048;2023-04-24T01:46:33;21.30;64.10
49222;DHT22;35047;37.588;-122.048;2023-04-24T01:49:01;21.20;64.70
49222;DHT22;35047;37.588;-122.048;2023-04-24T01:51:27;21.10;64.30
49222;DHT22;35047;37.588;-122.048;2023-04-24T01:53:54;21.10;64.60
49222;DHT22;35047;37.588;-122.048;2023-04-24T01:56:22;21.20;64.70
49222;DHT22;35047;37.588;-122.048;2023-04-24T01:58:50;21.10;64.40
49222;DHT22;35047;37.588;-122.048;2023-04-24T02:01:20;21.00;64.40
49222;DHT22;35047;37.588;-122.048;2023-04-24T02:03:47;20.90;64.60
49222;DHT22;35047;37.588;-122.048;2023-04-24T02:06:14;20.80;64.90
49222;DHT22;35047;37.588;-122.048;2023-04-24T02:08:41;20.80;65.40
49222;DHT22;35047;37.588;-122.048;2023-04-24T02:11:10;20.70;65.60
49222;DHT22;35047;37.588;-122.048;2023-04-24T02:13:37;20.70;66.00
49222;DHT22;35047;37.588;-122.048;2023-04-24T02:16:03;20.70;66.00
49222;DHT22;35047;37.588;-122.048;2023-04-24T02:18:30;20.70;65.70
49222;DHT22;35047;37.588;-122.048;2023-04-24T02:20:56;20.60;66.30
49222;DHT22;35047;37.588;-122.048;2023-04-24T02:23:23;20.50;65.90
49222;DHT22;35047;37.588;-122.048;2023-04-24T02:25:49;20.50;65.80
49222;DHT22;35047;37.588;-122.048;2023-04-24T02:28:16;20.40;65.60
49222;DHT22;35047;37.588;-122.048;2023-04-24T02:30:43;20.40;65.60
49222;DHT22;35047;37.588;-122.048;2023-04-24T02:33:09;20.40;65.80
49222;DHT22;35047;37.588;-122.048;2023-04-24T02:35:36;20.30;66.30
49222;DHT22;35047;37.588;-122.048;2023-04-24T02:38:02;20.30;66.40
49222;DHT22;35047;37.588;-122.048;2023-04-24T02:40:29;20.10;66.20
49222;DHT22;35047;37.588;-122.048;2023-04-24T02:42:56;20.10;66.60
49222;DHT22;35047;37.588;-122.048;2023-04-24T02:45:22;20.00;66.60
49222;DHT22;35047;37.588;-122.048;2023-04-24T02:47:49;19.90;66.40
49222;DHT22;35047;37.588;-122.048;2023-04-24T02:50:15;19.80;67.00
49222;DHT22;35047;37.588;-122.048;2023-04-24T02:52:41;19.80;66.80
49222;DHT22;35047;37.588;-122.048;2023-04-24T02:55:08;19.70;67.60
49222;DHT22;35047;37.588;-122.048;2023-04-24T02:57:35;19.60;67.00
49222;DHT22;35047;37.588;-122.048;2023-04-24T03:00:01;19.70;67.20
49222;DHT22;35047;37.588;-122.048;2023-04-24T03:02:28;19.70;67.20
49222;DHT22;35047;37.588;-122.048;2023-04-24T03:04:55;19.70;67.20
49222;DHT22;35047;37.588;-122.048;2023-04-24T03:07:22;19.70;67.20
49222;DHT22;35047;37.588;-122.048;2023-04-24T03:09:49;19.70;67.20
49222;DHT22;35047;37.588;-122.048;2023-04-24T03:12:16;19.50;67.40
49222;DHT22;35047;37.588;-122.048;2023-04-24T03:14:44;19.40;67.70
49222;DHT22;35047;37.588;-122.048;2023-04-24T03:17:11;19.40;68.00
49222;DHT22;35047;37.588;-122.048;2023-04-24T03:19:37;19.30;68.80
49222;DHT22;35047;37.588;-122.048;2023-04-24T03:22:04;19.30;68.00
49222;DHT22;35047;37.588;-122.048;2023-04-24T03:24:31;19.20;68.10
49222;DHT22;35047;37.588;-122.048;2023-04-24T03:26:57;19.20;68.60
49222;DHT22;35047;37.588;-122.048;2023-04-24T03:29:24;19.10;69.10
49222;DHT22;35047;37.588;-122.048;2023-04-24T03:31:50;19.10;69.00
49222;DHT22;35047;37.588;-122.048;2023-04-24T03:34:17;19.10;69.20
49222;DHT22;35047;37.588;-122.048;2023-04-24T03:36:43;19.10;69.10
49222;DHT22;35047;37.588;-122.048;2023-04-24T03:39:10;19.10;69.00
49222;DHT22;35047;37.588;-122.048;2023-04-24T03:41:37;19.00;69.70
49222;DHT22;35047;37.588;-122.048;2023-04-24T03:44:03;18.90;69.10
49222;DHT22;35047;37.588;-122.048;2023-04-24T03:46:30;18.90;69.50
49222;DHT22;35047;37.588;-122.048;2023-04-24T03:48:56;18.90;69.50
49222;DHT22;35047;37.588;-122.048;2023-04-24T03:51:23;18.90;69.10
49222;DHT22;35047;37.588;-122.048;2023-04-24T03:53:50;18.80;70.00
49222;DHT22;35047;37.588;-122.048;2023-04-24T03:56:16;18.70;70.10
49222;DHT22;35047;37.588;-122.048;2023-04-24T03:58:43;18.70;70.40
49222;DHT22;35047;37.588;-122.048;2023-04-24T04:01:10;18.70;70.60
49222;DHT22;35047;37.588;-122.048;2023-04-24T04:03:38;18.60;70.50
49222;DHT22;35047;37.588;-122.048;2023-04-24T04:06:05;18.70;70.80
49222;DHT22;35047;37.588;-122.048;2023-04-24T04:08:31;18.80;70.20
49222;DHT22;35047;37.588;-122.048;2023-04-24T04:10:57;18.60;70.30
49222;DHT22;35047;37.588;-122.048;2023-04-24T04:13:24;18.60;70.70
49222;DHT22;35047;37.588;-122.048;2023-04-24T04:15:51;18.50;70.70
49222;DHT22;35047;37.588;-122.048;2023-04-24T04:18:17;18.50;70.80
49222;DHT22;35047;37.588;-122.048;2023-04-24T04:20:43;18.50;70.90
49222;DHT22;35047;37.588;-122.048;2023-04-24T04:23:10;18.40;70.90
49222;DHT22;35047;37.588;-122.048;2023-04-24T04:25:36;18.40;71.10
49222;DHT22;35047;37.588;-122.048;2023-04-24T04:28:03;18.40;71.20
49222;DHT22;35047;37.588;-122.048;2023-04-24T04:30:29;18.40;71.00
49222;DHT22;35047;37.588;-122.048;2023-04-24T04:32:59;18.40;71.20
49222;DHT22;35047;37.588;-122.048;2023-04-24T04:35:26;18.40;71.20
49222;DHT22;35047;37.588;-122.048;2023-04-24T04:37:52;18.50;71.40
49222;DHT22;35047;37.588;-122.048;2023-04-24T04:40:19;18.50;71.50
49222;DHT22;35047;37.588;-122.048;2023-04-24T04:42:45;18.50;71.60
49222;DHT22;35047;37.588;-122.048;2023-04-24T04:45:12;18.50;71.30
49222;DHT22;35047;37.588;-122.048;2023-04-24T04:47:38;18.40;71.30
49222;DHT22;35047;37.588;-122.048;2023-04-24T04:50:05;18.40;71.70
49222;DHT22;35047;37.588;-122.048;2023-04-24T04:52:32;18.40;71.60
49222;DHT22;35047;37.588;-122.048;2023-04-24T04:55:02;18.40;71.70
49222;DHT22;35047;37.588;-122.048;2023-04-24T04:57:28;18.40;71.90
49222;DHT22;35047;37.588;-122.048;2023-04-24T04:59:56;18.50;71.80
49222;DHT22;35047;37.588;-122.048;2023-04-24T05:02:22;18.50;71.60
49222;DHT22;35047;37.588;-122.048;2023-04-24T05:04:49;18.40;71.50
49222;DHT22;35047;37.588;-122.048;2023-04-24T05:07:15;18.30;71.80
49222;DHT22;35047;37.588;-122.048;2023-04-24T05:09:42;18.30;72.00
49222;DHT22;35047;37.588;-122.048;2023-04-24T05:12:08;18.20;71.60
49222;DHT22;35047;37.588;-122.048;2023-04-24T05:14:34;18.20;72.40
49222;DHT22;35047;37.588;-122.048;2023-04-24T05:17:01;18.10;71.90
49222;DHT22;35047;37.588;-122.048;2023-04-24T05:19:28;17.80;71.80
49222;DHT22;35047;37.588;-122.048;2023-04-24T05:21:55;18.00;74.30
49222;DHT22;35047;37.588;-122.048;2023-04-24T05:24:21;18.10;73.60
49222;DHT22;35047;37.588;-122.048;2023-04-24T05:26:49;18.10;73.50
49222;DHT22;35047;37.588;-122.048;2023-04-24T05:29:15;18.10;72.70
49222;DHT22;35047;37.588;-122.048;2023-04-24T05:31:42;18.00;73.10
49222;DHT22;35047;37.588;-122.048;2023-04-24T05:34:08;18.10;73.10
49222;DHT22;35047;37.588;-122.048;2023-04-24T05:36:36;18.10;72.60
49222;DHT22;35047;37.588;-122.048;2023-04-24T05:39:02;18.10;72.40
49222;DHT22;35047;37.588;-122.048;2023-04-24T05:41:31;18.10;72.60
49222;DHT22;35047;37.588;-122.048;2023-04-24T05:43:57;18.30;72.60
49222;DHT22;35047;37.588;-122.048;2023-04-24T05:46:23;18.30;72.00
49222;DHT22;35047;37.588;-122.048;2023-04-24T05:48:50;18.30;72.10
49222;DHT22;35047;37.588;-122.048;2023-04-24T05:51:16;18.30;71.80
49222;DHT22;35047;37.588;-122.048;2023-04-24T05:53:43;18.30;71.90
49222;DHT22;35047;37.588;-122.048;2023-04-24T05:56:10;18.30;72.60
49222;DHT22;35047;37.588;-122.048;2023-04-24T05:58:36;18.20;71.60
49222;DHT22;35047;37.588;-122.048;2023-04-24T06:01:03;18.00;72.00
49222;DHT22;35047;37.588;-122.048;2023-04-24T06:03:30;18.20;73.00
49222;DHT22;35047;37.588;-122.048;2023-04-24T06:05:56;18.20;72.20
49222;DHT22;35047;37.588;-122.048;2023-04-24T06:08:23;18.40;72.10
49222;DHT22;35047;37.588;-122.048;2023-04-24T06:10:50;18.50;71.90
49222;DHT22;35047;37.588;-122.048;2023-04-24T06:13:16;18.50;71.90
49222;DHT22;35047;37.588;-122.048;2023-04-24T06:15:44;18.60;71.40
49222;DHT22;35047;37.588;-122.048;2023-04-24T06:18:10;18.70;71.60
49222;DHT22;35047;37.588;-122.048;2023-04-24T06:20:37;18.70;70.70
49222;DHT22;35047;37.588;-122.048;2023-04-24T06:23:03;18.70;70.20
49222;DHT22;35047;37.588;-122.048;2023-04-24T06:25:30;18.70;70.60
49222;DHT22;35047;37.588;-122.048;2023-04-24T06:27:57;18.70;70.20
49222;DHT22;35047;37.588;-122.048;2023-04-24T06:30:23;18.70;70.10
49222;DHT22;35047;37.588;-122.048;2023-04-24T06:32:50;18.70;70.10
49222;DHT22;35047;37.588;-122.048;2023-04-24T06:35:17;18.70;70.00
49222;DHT22;35047;37.588;-122.048;2023-04-24T06:37:43;18.60;70.20
49222;DHT22;35047;37.588;-122.048;2023-04-24T06:40:10;18.60;70.50
49222;DHT22;35047;37.588;-122.048;2023-04-24T06:42:37;18.60;70.40
49222;DHT22;35047;37.588;-122.048;2023-04-24T06:45:04;18.60;70.50
49222;DHT22;35047;37.588;-122.048;2023-04-24T06:47:32;18.50;70.40
49222;DHT22;35047;37.588;-122.048;2023-04-24T06:49:58;18.40;70.20
49222;DHT22;35047;37.588;-122.048;2023-04-24T06:52:25;18.50;70.30
49222;DHT22;35047;37.588;-122.048;2023-04-24T06:54:51;18.50;70.20
49222;DHT22;35047;37.588;-122.048;2023-04-24T06:57:18;18.50;70.30
49222;DHT22;35047;37.588;-122.048;2023-04-24T06:59:46;18.40;70.30
49222;DHT22;35047;37.588;-122.048;2023-04-24T07:02:12;18.40;70.40
49222;DHT22;35047;37.588;-122.048;2023-04-24T07:04:39;18.40;70.40
49222;DHT22;35047;37.588;-122.048;2023-04-24T07:07:06;18.40;70.40
49222;DHT22;35047;37.588;-122.048;2023-04-24T07:09:35;18.30;70.50
49222;DHT22;35047;37.588;-122.048;2023-04-24T07:12:04;18.30;70.50
49222;DHT22;35047;37.588;-122.048;2023-04-24T07:14:31;18.30;70.40
49222;DHT22;35047;37.588;-122.048;2023-04-24T07:16:58;18.30;70.40
49222;DHT22;35047;37.588;-122.048;2023-04-24T07:19:24;18.30;70.30
49222;DHT22;35047;37.588;-122.048;2023-04-24T07:21:51;18.30;70.20
49222;DHT22;35047;37.588;-122.048;2023-04-24T07:24:17;18.20;70.50
49222;DHT22;35047;37.588;-122.048;2023-04-24T07:26:44;18.20;70.50
49222;DHT22;35047;37.588;-122.048;2023-04-24T07:29:12;18.20;70.50
49222;DHT22;35047;37.588;-122.048;2023-04-24T07:31:39;18.20;70.40
49222;DHT22;35047;37.588;-122.048;2023-04-24T07:34:07;18.20;70.20
49222;DHT22;35047;37.588;-122.048;2023-04-24T07:36:33;18.10;70.30
49222;DHT22;35047;37.588;-122.048;2023-04-24T07:39:00;18.10;70.20
49222;DHT22;35047;37.588;-122.048;2023-04-24T07:41:26;18.10;70.50
49222;DHT22;35047;37.588;-122.048;2023-04-24T07:43:53;18.10;70.50
49222;DHT22;35047;37.588;-122.048;2023-04-24T07:46:20;18.00;70.30
49222;DHT22;35047;37.588;-122.048;2023-04-24T07:48:47;18.00;70.20
49222;DHT22;35047;37.588;-122.048;2023-04-24T07:51:14;18.10;70.30
49222;DHT22;35047;37.588;-122.048;2023-04-24T07:53:42;18.10;70.30
49222;DHT22;35047;37.588;-122.048;2023-04-24T07:56:10;18.00;70.20
49222;DHT22;35047;37.588;-122.048;2023-04-24T07:58:36;17.90;70.50
49222;DHT22;35047;37.588;-122.048;2023-04-24T08:01:03;17.90;70.60
49222;DHT22;35047;37.588;-122.048;2023-04-24T08:03:29;17.90;70.80
49222;DHT22;35047;37.588;-122.048;2023-04-24T08:05:56;17.90;70.90
49222;DHT22;35047;37.588;-122.048;2023-04-24T08:08:23;17.80;70.60
49222;DHT22;35047;37.588;-122.048;2023-04-24T08:10:50;17.80;71.00
49222;DHT22;35047;37.588;-122.048;2023-04-24T08:13:16;17.80;71.70
49222;DHT22;35047;37.588;-122.048;2023-04-24T08:15:43;17.80;71.20
49222;DHT22;35047;37.588;-122.048;2023-04-24T08:18:09;17.80;71.00
49222;DHT22;35047;37.588;-122.048;2023-04-24T08:20:37;17.80;71.10
49222;DHT22;35047;37.588;-122.048;2023-04-24T08:23:04;17.80;71.20
49222;DHT22;35047;37.588;-122.048;2023-04-24T08:25:30;17.80;70.90
49222;DHT22;35047;37.588;-122.048;2023-04-24T08:27:57;17.80;70.90
49222;DHT22;35047;37.588;-122.048;2023-04-24T08:30:23;17.80;71.00
49222;DHT22;35047;37.588;-122.048;2023-04-24T08:32:50;17.80;71.00
49222;DHT22;35047;37.588;-122.048;2023-04-24T08:35:16;17.80;70.90
49222;DHT22;35047;37.588;-122.048;2023-04-24T08:37:43;17.70;70.90
49222;DHT22;35047;37.588;-122.048;2023-04-24T08:40:14;17.70;71.00
49222;DHT22;35047;37.588;-122.048;2023-04-24T08:42:44;17.60;70.60
49222;DHT22;35047;37.588;-122.048;2023-04-24T08:45:13;17.60;70.40
49222;DHT22;35047;37.588;-122.048;2023-04-24T08:47:42;17.50;70.60
49222;DHT22;35047;37.588;-122.048;2023-04-24T08:50:10;17.50;70.70
49222;DHT22;35047;37.588;-122.048;2023-04-24T08:52:36;17.50;71.00
49222;DHT22;35047;37.588;-122.048;2023-04-24T08:55:04;17.60;71.10
49222;DHT22;35047;37.588;-122.048;2023-04-24T08:57:31;17.50;70.60
49222;DHT22;35047;37.588;-122.048;2023-04-24T09:00:00;17.60;70.60
49222;DHT22;35047;37.588;-122.048;2023-04-24T09:02:26;17.50;70.40
49222;DHT22;35047;37.588;-122.048;2023-04-24T09:04:53;17.50;70.20
49222;DHT22;35047;37.588;-122.048;2023-04-24T09:07:24;17.50;70.50
49222;DHT22;35047;37.588;-122.048;2023-04-24T09:09:52;17.40;70.60
49222;DHT22;35047;37.588;-122.048;2023-04-24T09:12:19;17.40;70.30
49222;DHT22;35047;37.588;-122.048;2023-04-24T09:14:48;17.40;70.30
49222;DHT22;35047;37.588;-122.048;2023-04-24T09:17:15;17.40;70.60
49222;DHT22;35047;37.588;-122.048;2023-04-24T09:19:42;17.40;70.60
49222;DHT22;35047;37.588;-122.048;2023-04-24T09:22:09;17.30;70.30
49222;DHT22;35047;37.588;-122.048;2023-04-24T09:24:37;17.30;70.60
49222;DHT22;35047;37.588;-122.048;2023-04-24T09:27:04;17.30;70.70
49222;DHT22;35047;37.588;-122.048;2023-04-24T09:29:31;17.30;70.80
49222;DHT22;35047;37.588;-122.048;2023-04-24T09:31:59;17.20;70.80
49222;DHT22;35047;37.588;-122.048;2023-04-24T09:34:43;17.20;70.80
49222;DHT22;35047;37.588;-122.048;2023-04-24T09:37:29;17.20;70.80
49222;DHT22;35047;37.588;-122.048;2023-04-24T09:40:13;17.10;70.80
49222;DHT22;35047;37.588;-122.048;2023-04-24T09:42:43;17.10;70.80
49222;DHT22;35047;37.588;-122.048;2023-04-24T09:45:10;17.00;70.60
49222;DHT22;35047;37.588;-122.048;2023-04-24T09:47:40;17.10;70.40
49222;DHT22;35047;37.588;-122.048;2023-04-24T09:50:11;17.10;70.50
49222;DHT22;35047;37.588;-122.048;2023-04-24T09:52:45;17.10;70.90
49222;DHT22;35047;37.588;-122.048;2023-04-24T09:55:21;17.00;71.10
49222;DHT22;35047;37.588;-122.048;2023-04-24T09:58:00;17.00;71.30
49222;DHT22;35047;37.588;-122.048;2023-04-24T10:00:29;17.00;71.30
49222;DHT22;35047;37.588;-122.048;2023-04-24T10:02:57;16.90;71.10
49222;DHT22;35047;37.588;-122.048;2023-04-24T10:05:27;16.90;71.10
49222;DHT22;35047;37.588;-122.048;2023-04-24T10:07:57;16.90;71.20
49222;DHT22;35047;37.588;-122.048;2023-04-24T10:10:24;16.80;71.30
49222;DHT22;35047;37.588;-122.048;2023-04-24T10:12:51;16.80;71.40
49222;DHT22;35047;37.588;-122.048;2023-04-24T10:15:19;16.80;71.40
49222;DHT22;35047;37.588;-122.048;2023-04-24T10:17:50;16.80;71.50
49222;DHT22;35047;37.588;-122.048;2023-04-24T10:20:25;16.80;71.60
49222;DHT22;35047;37.588;-122.048;2023-04-24T10:22:53;16.70;72.10
49222;DHT22;35047;37.588;-122.048;2023-04-24T10:25:20;16.70;71.60
49222;DHT22;35047;37.588;-122.048;2023-04-24T10:27:49;16.70;71.50
49222;DHT22;35047;37.588;-122.048;2023-04-24T10:30:16;16.70;71.30
49222;DHT22;35047;37.588;-122.048;2023-04-24T10:32:43;16.60;71.10
49222;DHT22;35047;37.588;-122.048;2023-04-24T10:35:14;16.60;71.30
49222;DHT22;35047;37.588;-122.048;2023-04-24T10:37:48;16.60;71.10
49222;DHT22;35047;37.588;-122.048;2023-04-24T10:40:25;16.60;71.00
49222;DHT22;35047;37.588;-122.048;2023-04-24T10:42:52;16.60;71.20
49222;DHT22;35047;37.588;-122.048;2023-04-24T10:45:22;16.60;71.40
49222;DHT22;35047;37.588;-122.048;2023-04-24T10:50:26;16.50;71.50
49222;DHT22;35047;37.588;-122.048;2023-04-24T10:52:55;16.50;71.60
49222;DHT22;35047;37.588;-122.048;2023-04-24T10:55:41;16.40;71.40
49222;DHT22;35047;37.588;-122.048;2023-04-24T10:58:08;16.40;72.10
49222;DHT22;35047;37.588;-122.048;2023-04-24T11:00:39;16.40;72.60
49222;DHT22;35047;37.588;-122.048;2023-04-24T11:03:22;16.40;72.50
49222;DHT22;35047;37.588;-122.048;2023-04-24T11:05:52;16.40;72.40
49222;DHT22;35047;37.588;-122.048;2023-04-24T11:13:27;16.40;72.30
49222;DHT22;35047;37.588;-122.048;2023-04-24T11:16:19;16.40;73.00
49222;DHT22;35047;37.588;-122.048;2023-04-24T11:18:51;16.40;72.10
49222;DHT22;35047;37.588;-122.048;2023-04-24T11:21:22;16.40;71.90
49222;DHT22;35047;37.588;-122.048;2023-04-24T11:23:49;16.40;71.70
49222;DHT22;35047;37.588;-122.048;2023-04-24T11:26:22;16.40;71.60
49222;DHT22;35047;37.588;-122.048;2023-04-24T11:29:06;16.40;71.80
49222;DHT22;35047;37.588;-122.048;2023-04-24T11:31:37;16.40;71.70
49222;DHT22;35047;37.588;-122.048;2023-04-24T11:34:13;16.40;71.50
49222;DHT22;35047;37.588;-122.048;2023-04-24T11:36:48;16.30;71.30
49222;DHT22;35047;37.588;-122.048;2023-04-24T11:39:16;16.30;72.00
49222;DHT22;35047;37.588;-122.048;2023-04-24T11:41:43;16.40;71.30
49222;DHT22;35047;37.588;-122.048;2023-04-24T11:44:10;16.40;71.00
49222;DHT22;35047;37.588;-122.048;2023-04-24T11:46:37;16.30;71.10
49222;DHT22;35047;37.588;-122.048;2023-04-24T11:49:06;16.30;71.30
49222;DHT22;35047;37.588;-122.048;2023-04-24T11:51:32;16.30;71.20
49222;DHT22;35047;37.588;-122.048;2023-04-24T11:54:00;16.30;71.30
49222;DHT22;35047;37.588;-122.048;2023-04-24T11:56:26;16.20;71.60
49222;DHT22;35047;37.588;-122.048;2023-04-24T11:58:53;16.20;71.50
49222;DHT22;35047;37.588;-122.048;2023-04-24T12:01:21;16.20;71.30
49222;DHT22;35047;37.588;-122.048;2023-04-24T12:03:48;16.20;71.20
49222;DHT22;35047;37.588;-122.048;2023-04-24T12:06:17;16.10;71.30
49222;DHT22;35047;37.588;-122.048;2023-04-24T12:08:46;16.10;71.70
49222;DHT22;35047;37.588;-122.048;2023-04-24T12:11:15;16.00;71.50
49222;DHT22;35047;37.588;-122.048;2023-04-24T12:13:44;16.00;71.90
49222;DHT22;35047;37.588;-122.048;2023-04-24T12:16:11;16.00;72.10
49222;DHT22;35047;37.588;-122.048;2023-04-24T12:18:45;16.00;72.10
49222;DHT22;35047;37.588;-122.048;2023-04-24T12:21:19;16.00;72.30
49222;DHT22;35047;37.588;-122.048;2023-04-24T12:23:46;15.90;72.10
49222;DHT22;35047;37.588;-122.048;2023-04-24T12:26:17;15.80;72.00
49222;DHT22;35047;37.588;-122.048;2023-04-24T12:28:47;15.80;72.60
49222;DHT22;35047;37.588;-122.048;2023-04-24T12:31:15;15.80;72.70
49222;DHT22;35047;37.588;-122.048;2023-04-24T12:33:42;15.80;72.70
49222;DHT22;35047;37.588;-122.048;2023-04-24T12:36:12;15.80;72.60
49222;DHT22;35047;37.588;-122.048;2023-04-24T12:38:39;15.80;71.70
49222;DHT22;35047;37.588;-122.048;2023-04-24T12:41:11;15.80;73.60
49222;DHT22;35047;37.588;-122.048;2023-04-24T12:43:38;15.80;73.10
49222;DHT22;35047;37.588;-122.048;2023-04-24T12:46:05;15.80;73.20
49222;DHT22;35047;37.588;-122.048;2023-04-24T12:48:31;15.80;73.20
49222;DHT22;35047;37.588;-122.048;2023-04-24T12:50:58;15.80;73.20
49222;DHT22;35047;37.588;-122.048;2023-04-24T12:53:28;15.80;73.50
49222;DHT22;35047;37.588;-122.048;2023-04-24T12:55:58;15.80;73.30
49222;DHT22;35047;37.588;-122.048;2023-04-24T12:58:24;15.80;73.20
49222;DHT22;35047;37.588;-122.048;2023-04-24T13:00:51;15.90;73.10
49222;DHT22;35047;37.588;-122.048;2023-04-24T13:03:18;15.90;72.90
49222;DHT22;35047;37.588;-122.048;2023-04-24T13:05:45;15.90;73.10
49222;DHT22;35047;37.588;-122.048;2023-04-24T13:08:12;15.90;73.10
49222;DHT22;35047;37.588;-122.048;2023-04-24T13:10:39;15.80;72.90
49222;DHT22;35047;37.588;-122.048;2023-04-24T13:13:06;15.80;73.00
49222;DHT22;35047;37.588;-122.048;2023-04-24T13:15:33;15.80;73.00
49222;DHT22;35047;37.588;-122.048;2023-04-24T13:18:00;15.80;73.10
49222;DHT22;35047;37.588;-122.048;2023-04-24T13:20:26;15.70;73.10
49222;DHT22;35047;37.588;-122.048;2023-04-24T13:22:53;15.80;73.20
49222;DHT22;35047;37.588;-122.048;2023-04-24T13:25:20;15.80;73.40
49222;DHT22;35047;37.588;-122.048;2023-04-24T13:27:47;15.70;73.40
49222;DHT22;35047;37.588;-122.048;2023-04-24T13:30:13;15.80;73.00
49222;DHT22;35047;37.588;-122.048;2023-04-24T13:32:40;15.70;72.80
49222;DHT22;35047;37.588;-122.048;2023-04-24T13:35:06;15.70;73.00
49222;DHT22;35047;37.588;-122.048;2023-04-24T13:37:33;15.60;73.00
49222;DHT22;35047;37.588;-122.048;2023-04-24T13:40:00;15.70;73.10
49222;DHT22;35047;37.588;-122.048;2023-04-24T13:42:26;15.70;73.40
49222;DHT22;35047;37.588;-122.048;2023-04-24T13:44:54;15.60;73.20
49222;DHT22;35047;37.588;-122.048;2023-04-24T13:47:20;15.60;73.60
49222;DHT22;35047;37.588;-122.048;2023-04-24T13:49:47;15.60;73.90
49222;DHT22;35047;37.588;-122.048;2023-04-24T13:52:13;15.70;74.00
49222;DHT22;35047;37.588;-122.048;2023-04-24T13:54:40;15.60;74.00
49222;DHT22;35047;37.588;-122.048;2023-04-24T13:57:07;15.60;73.90
49222;DHT22;35047;37.588;-122.048;2023-04-24T13:59:33;15.70;74.00
49222;DHT22;35047;37.588;-122.048;2023-04-24T14:01:59;15.70;74.10
49222;DHT22;35047;37.588;-122.048;2023-04-24T14:04:26;15.70;74.20
49222;DHT22;35047;37.588;-122.048;2023-04-24T14:06:52;15.70;74.50
49222;DHT22;35047;37.588;-122.048;2023-04-24T14:09:19;15.70;74.50
49222;DHT22;35047;37.588;-122.048;2023-04-24T14:11:46;15.80;74.50
49222;DHT22;35047;37.588;-122.048;2023-04-24T14:14:12;15.80;74.80
49222;DHT22;35047;37.588;-122.048;2023-04-24T14:16:39;15.80;74.90
49222;DHT22;35047;37.588;-122.048;2023-04-24T14:19:05;15.90;74.70
49222;DHT22;35047;37.588;-122.048;2023-04-24T14:21:32;15.90;74.90
49222;DHT22;35047;37.588;-122.048;2023-04-24T14:23:59;15.90;75.20
49222;DHT22;35047;37.588;-122.048;2023-04-24T14:26:25;15.90;75.20
49222;DHT22;35047;37.588;-122.048;2023-04-24T14:28:52;16.00;75.60
49222;DHT22;35047;37.588;-122.048;2023-04-24T14:31:19;16.10;75.60
49222;DHT22;35047;37.588;-122.048;2023-04-24T14:33:47;16.20;75.70
49222;DHT22;35047;37.588;-122.048;2023-04-24T14:36:13;16.20;75.60
49222;DHT22;35047;37.588;-122.048;2023-04-24T14:38:39;16.30;75.70
49222;DHT22;35047;37.588;-122.048;2023-04-24T14:41:06;16.40;75.40
49222;DHT22;35047;37.588;-122.048;2023-04-24T14:43:36;16.50;75.10
49222;DHT22;35047;37.588;-122.048;2023-04-24T14:46:03;16.60;74.80
49222;DHT22;35047;37.588;-122.048;2023-04-24T14:48:30;16.70;74.60
49222;DHT22;35047;37.588;-122.048;2023-04-24T14:50:57;16.70;74.40
49222;DHT22;35047;37.588;-122.048;2023-04-24T14:53:24;16.90;73.80
49222;DHT22;35047;37.588;-122.048;2023-04-24T14:55:50;16.90;73.10
49222;DHT22;35047;37.588;-122.048;2023-04-24T14:58:17;16.90;73.80
49222;DHT22;35047;37.588;-122.048;2023-04-24T15:00:44;17.00;74.10